createdAt,value
2023-01-07T00:01:28.624Z,96755.81
2023-01-07T00:03:59.270Z,96765.94
2023-01-07T00:06:29.610Z,96795.09
2023-01-07T00:08:57.654Z,96783.88
2023-01-07T00:11:28.357Z,96753.47
2023-01-07T00:13:56.507Z,96780.06
2023-01-07T00:16:25.770Z,96780.56
2023-01-07T00:18:53.554Z,96785.06
2023-01-07T00:21:22.526Z,96775.44
2023-01-07T00:23:53.208Z,96768.44
2023-01-07T00:26:21.037Z,96766.13
2023-01-07T00:28:50.299Z,96781.78
2023-01-07T00:31:22.913Z,96775.53
2023-01-07T00:33:59.542Z,96772.13
2023-01-07T00:36:31.963Z,96770.75
2023-01-07T00:39:01.151Z,96777.56
2023-01-07T00:41:28.455Z,96766.59
2023-01-07T00:43:56.217Z,96739.75
2023-01-07T00:46:23.123Z,96733.59
2023-01-07T00:48:50.074Z,96755.66
2023-01-07T00:51:18.155Z,96738.00
2023-01-07T00:53:45.195Z,96758.75
2023-01-07T00:56:14.435Z,96768.50
2023-01-07T00:58:41.743Z,96758.06
2023-01-07T01:01:10.355Z,96773.75
2023-01-07T01:03:38.458Z,96707.69
2023-01-07T01:06:07.938Z,96736.78
2023-01-07T01:08:34.591Z,96745.44
2023-01-07T01:11:06.338Z,96745.25
2023-01-07T01:13:34.504Z,96736.44
2023-01-07T01:16:01.559Z,96765.84
2023-01-07T01:18:28.256Z,96742.63
2023-01-07T01:20:55.114Z,96744.94
2023-01-07T01:23:22.092Z,96752.13
2023-01-07T01:25:48.761Z,96733.59
2023-01-07T01:28:15.389Z,96708.09
2023-01-07T01:30:42.044Z,96717.44
2023-01-07T01:33:09.680Z,96748.94
2023-01-07T01:35:41.310Z,96742.19
2023-01-07T01:38:08.620Z,96762.59
2023-01-07T01:40:35.328Z,96748.41
2023-01-07T01:43:04.747Z,96763.09
2023-01-07T01:45:32.077Z,96707.66
2023-01-07T01:48:09.752Z,96760.59
2023-01-07T01:50:43.956Z,96737.59
2023-01-07T01:53:24.232Z,96716.94
2023-01-07T01:55:58.576Z,96740.00
2023-01-07T01:58:36.356Z,96714.97
2023-01-07T02:01:04.078Z,96727.78
2023-01-07T02:03:34.507Z,96735.53
2023-01-07T02:06:02.382Z,96737.59
2023-01-07T02:08:29.207Z,96720.28
2023-01-07T02:11:08.311Z,96728.81
2023-01-07T02:13:49.211Z,96717.22
2023-01-07T02:16:28.097Z,96689.34
2023-01-07T02:19:07.155Z,96677.78
2023-01-07T02:21:36.729Z,96735.69
2023-01-07T02:24:23.175Z,96712.81
2023-01-07T02:27:11.139Z,96718.25
2023-01-07T02:30:33.708Z,96724.44
2023-01-07T02:33:18.737Z,96708.16
2023-01-07T02:36:10.452Z,96707.09
2023-01-07T02:39:09.347Z,96683.50
2023-01-07T02:41:45.231Z,96702.50
2023-01-07T02:44:16.980Z,96692.31
2023-01-07T02:46:50.419Z,96663.03
2023-01-07T02:49:18.363Z,96703.03
2023-01-07T02:51:46.519Z,96693.69
2023-01-07T02:54:22.002Z,96677.81
2023-01-07T02:56:53.532Z,96694.66
2023-01-07T02:59:47.196Z,96694.53
2023-01-07T03:02:35.210Z,96690.44
2023-01-07T03:05:35.013Z,96674.97
2023-01-07T03:08:10.363Z,96687.06
2023-01-07T03:10:45.093Z,96674.19
2023-01-07T03:13:19.693Z,96693.00
2023-01-07T03:15:59.991Z,96692.22
2023-01-07T03:18:30.195Z,96677.88
2023-01-07T03:21:10.964Z,96686.09
2023-01-07T03:23:44.008Z,96637.44
2023-01-07T03:26:12.555Z,96664.78
2023-01-07T03:28:42.707Z,96674.72
2023-01-07T03:31:14.252Z,96687.97
2023-01-07T03:33:45.818Z,96684.06
2023-01-07T03:36:16.505Z,96655.16
2023-01-07T03:38:44.518Z,96642.19
2023-01-07T03:41:31.811Z,96658.78
2023-01-07T03:43:58.647Z,96669.19
2023-01-07T03:46:25.594Z,96669.66
2023-01-07T03:48:52.226Z,96661.88
2023-01-07T03:51:18.937Z,96636.09
2023-01-07T03:53:45.619Z,96647.84
2023-01-07T03:56:12.249Z,96621.81
2023-01-07T03:58:38.865Z,96657.72
2023-01-07T04:01:05.787Z,96630.66
2023-01-07T04:03:33.229Z,96587.22
2023-01-07T04:05:59.870Z,96649.84
2023-01-07T04:08:26.571Z,96621.16
2023-01-07T04:10:53.288Z,96645.72
2023-01-07T04:13:19.878Z,96628.31
2023-01-07T04:15:48.983Z,96638.66
2023-01-07T04:18:15.552Z,96611.69
2023-01-07T04:20:46.697Z,96597.69
2023-01-07T04:23:14.441Z,96615.50
2023-01-07T04:25:47.111Z,96627.25
2023-01-07T04:28:16.559Z,96605.31
2023-01-07T04:30:43.560Z,96607.16
2023-01-07T04:33:10.301Z,96588.06
2023-01-07T04:35:40.004Z,96630.16
2023-01-07T04:38:07.661Z,96630.63
2023-01-07T04:40:34.545Z,96622.56
2023-01-07T04:43:02.379Z,96604.31
2023-01-07T04:45:30.174Z,96600.19
2023-01-07T04:47:58.431Z,96586.88
2023-01-07T04:50:25.454Z,96593.88
2023-01-07T04:52:52.417Z,96595.44
2023-01-07T04:55:19.386Z,96614.41
2023-01-07T04:57:47.828Z,96571.78
2023-01-07T05:00:15.490Z,96551.47
2023-01-07T05:02:44.532Z,96568.31
2023-01-07T05:05:12.379Z,96561.66
2023-01-07T05:07:40.696Z,96594.16
2023-01-07T05:10:09.085Z,96578.56
2023-01-07T05:12:37.003Z,96550.22
2023-01-07T05:15:06.433Z,96561.09
2023-01-07T05:17:35.165Z,96560.81
2023-01-07T05:20:05.105Z,96549.63
2023-01-07T05:22:31.734Z,96573.28
2023-01-07T05:24:58.352Z,96558.19
2023-01-07T05:27:26.741Z,96578.59
2023-01-07T05:29:53.465Z,96579.28
2023-01-07T05:32:20.152Z,96553.09
2023-01-07T05:34:47.615Z,96541.69
2023-01-07T05:37:15.599Z,96521.66
2023-01-07T05:39:43.560Z,96559.31
2023-01-07T05:42:13.504Z,96563.91
2023-01-07T05:44:40.447Z,96544.38
2023-01-07T05:47:07.026Z,96548.91
2023-01-07T05:49:33.800Z,96559.31
2023-01-07T05:52:00.439Z,96526.53
2023-01-07T05:54:27.081Z,96550.03
2023-01-07T05:56:53.685Z,96543.34
2023-01-07T05:59:20.333Z,96548.63
2023-01-07T06:01:46.935Z,96540.13
2023-01-07T06:04:13.538Z,96569.59
2023-01-07T06:06:40.159Z,96507.25
2023-01-07T06:09:07.135Z,96524.97
2023-01-07T06:11:33.792Z,96507.31
2023-01-07T06:14:00.395Z,96534.97
2023-01-07T06:16:26.948Z,96545.22
2023-01-07T06:18:53.574Z,96533.84
2023-01-07T06:21:21.526Z,96506.22
2023-01-07T06:23:48.282Z,96525.81
2023-01-07T06:26:14.829Z,96533.59
2023-01-07T06:28:41.555Z,96513.34
2023-01-07T06:31:10.670Z,96524.84
2023-01-07T06:33:40.801Z,96546.94
2023-01-07T06:36:08.191Z,96540.19
2023-01-07T06:38:35.060Z,96520.44
2023-01-07T06:41:04.435Z,96520.53
2023-01-07T06:43:31.224Z,96525.00
2023-01-07T06:45:58.176Z,96516.91
2023-01-07T06:48:24.818Z,96508.28
2023-01-07T06:50:51.485Z,96522.38
2023-01-07T06:53:18.064Z,96519.19
2023-01-07T06:55:51.545Z,96516.25
2023-01-07T06:58:18.934Z,96468.59
2023-01-07T07:00:45.590Z,96526.53
2023-01-07T07:03:12.267Z,96507.91
2023-01-07T07:05:38.967Z,96484.56
2023-01-07T07:08:06.416Z,96499.19
2023-01-07T07:10:33.495Z,96490.44
2023-01-07T07:13:00.120Z,96478.28
2023-01-07T07:15:26.829Z,96508.75
2023-01-07T07:17:53.431Z,96500.19
2023-01-07T07:20:20.065Z,96482.19
2023-01-07T07:22:49.810Z,96503.44
2023-01-07T07:25:16.663Z,96509.38
2023-01-07T07:27:47.025Z,96506.44
2023-01-07T07:30:15.189Z,96477.97
2023-01-07T07:32:42.668Z,96517.25
2023-01-07T07:35:09.652Z,96503.81
2023-01-07T07:37:36.903Z,96478.22
2023-01-07T07:40:05.049Z,96483.13
2023-01-07T07:42:31.839Z,96499.75
2023-01-07T07:45:19.747Z,96477.38
2023-01-07T07:47:47.299Z,96497.69
2023-01-07T07:50:13.955Z,96459.56
2023-01-07T07:52:40.921Z,96490.34
2023-01-07T07:55:19.852Z,96500.56
2023-01-07T07:57:47.618Z,96478.56
2023-01-07T08:00:14.752Z,96474.28
2023-01-07T08:02:41.378Z,96494.41
2023-01-07T08:05:08.387Z,96449.00
2023-01-07T08:07:37.570Z,96479.56
2023-01-07T08:10:05.058Z,96480.63
2023-01-07T08:12:32.413Z,96450.56
2023-01-07T08:14:59.032Z,96436.06
2023-01-07T08:17:25.724Z,96453.38
2023-01-07T08:19:52.317Z,96481.88
2023-01-07T08:22:18.930Z,96466.78
2023-01-07T08:24:45.523Z,96466.97
2023-01-07T08:27:12.155Z,96443.56
2023-01-07T08:29:38.783Z,96452.25
2023-01-07T08:32:06.101Z,96456.31
2023-01-07T08:34:32.748Z,96441.34
2023-01-07T08:36:59.349Z,96442.13
2023-01-07T08:39:25.938Z,96464.31
2023-01-07T08:41:52.532Z,96458.00
2023-01-07T08:44:19.159Z,96467.25
2023-01-07T08:46:45.947Z,96423.53
2023-01-07T08:49:12.675Z,96460.16
2023-01-07T08:51:39.270Z,96432.88
2023-01-07T08:54:05.891Z,96448.41
2023-01-07T08:56:33.572Z,96426.84
2023-01-07T08:59:00.404Z,96429.06
2023-01-07T09:01:27.077Z,96448.91
2023-01-07T09:03:53.777Z,96410.41
2023-01-07T09:06:20.464Z,96402.06
2023-01-07T09:08:47.037Z,96437.25
2023-01-07T09:11:13.612Z,96422.59
2023-01-07T09:13:40.277Z,96449.88
2023-01-07T09:16:07.361Z,96437.53
2023-01-07T09:18:34.110Z,96442.31
2023-01-07T09:21:01.310Z,96412.75
2023-01-07T09:23:27.951Z,96416.66
2023-01-07T09:25:54.626Z,96429.69
2023-01-07T09:28:21.245Z,96405.47
2023-01-07T09:30:47.881Z,96431.94
2023-01-07T09:33:14.568Z,96464.56
2023-01-07T09:35:43.722Z,96445.22
2023-01-07T09:38:10.367Z,96444.34
2023-01-07T09:40:42.847Z,96438.22
2023-01-07T09:43:21.405Z,96433.78
2023-01-07T09:45:54.246Z,96444.34
2023-01-07T09:48:23.941Z,96458.34
2023-01-07T09:50:56.730Z,96454.97
2023-01-07T09:53:33.336Z,96431.16
2023-01-07T09:56:10.737Z,96426.88
2023-01-07T09:58:45.220Z,96433.69
2023-01-07T10:01:23.492Z,96450.56
2023-01-07T10:03:59.236Z,96440.38
2023-01-07T10:06:43.047Z,96440.06
2023-01-07T10:09:40.802Z,96442.16
2023-01-07T10:12:22.250Z,96418.03
2023-01-07T10:15:33.469Z,96433.09
2023-01-07T10:18:15.306Z,96423.47
2023-01-07T10:21:11.190Z,96426.75
2023-01-07T10:23:42.153Z,96416.56
2023-01-07T10:26:18.818Z,96391.72
2023-01-07T10:28:54.265Z,96404.50
2023-01-07T10:31:27.389Z,96369.06
2023-01-07T10:33:57.502Z,96392.84
2023-01-07T10:36:26.547Z,96398.44
2023-01-07T10:39:02.225Z,96397.19
2023-01-07T10:41:49.773Z,96393.50
2023-01-07T10:44:40.990Z,96392.31
2023-01-07T10:47:07.554Z,96389.88
2023-01-07T10:49:47.081Z,96384.03
2023-01-07T10:52:31.825Z,96376.16
2023-01-07T10:55:16.730Z,96378.97
2023-01-07T10:57:46.430Z,96360.94
2023-01-07T11:00:16.196Z,96378.81
2023-01-07T11:02:52.652Z,96364.16
2023-01-07T11:05:21.303Z,96380.44
2023-01-07T11:07:56.266Z,96364.22
2023-01-07T11:10:31.191Z,96364.94
2023-01-07T11:13:03.090Z,96343.69
2023-01-07T11:15:39.810Z,96370.34
2023-01-07T11:18:18.788Z,96367.78
2023-01-07T11:20:55.922Z,96370.03
2023-01-07T11:23:43.923Z,96363.41
2023-01-07T11:26:31.192Z,96360.13
2023-01-07T11:29:02.279Z,96358.19
2023-01-07T11:31:54.840Z,96347.34
2023-01-07T11:34:24.343Z,96340.72
2023-01-07T11:36:51.843Z,96335.00
2023-01-07T11:39:27.051Z,96332.69
2023-01-07T11:41:55.403Z,96332.38
2023-01-07T11:44:22.583Z,96334.53
2023-01-07T11:46:49.711Z,96325.88
2023-01-07T11:49:22.156Z,96302.88
2023-01-07T11:51:49.689Z,96294.88
2023-01-07T11:54:25.744Z,96294.78
2023-01-07T11:56:55.093Z,96272.63
2023-01-07T11:59:32.812Z,96258.09
2023-01-07T12:02:00.151Z,96302.28
2023-01-07T12:04:34.223Z,96302.59
2023-01-07T12:07:13.491Z,96288.63
2023-01-07T12:09:41.935Z,96287.94
2023-01-07T12:12:31.121Z,96289.03
2023-01-07T12:15:00.533Z,96289.81
2023-01-07T12:17:31.074Z,96256.81
2023-01-07T12:20:35.158Z,96290.44
2023-01-07T12:23:21.069Z,96286.56
2023-01-07T12:25:50.637Z,96283.16
2023-01-07T12:28:26.416Z,96271.88
2023-01-07T12:31:17.806Z,96274.63
2023-01-07T12:34:04.292Z,96252.31
2023-01-07T12:36:56.126Z,96271.38
2023-01-07T12:39:32.742Z,96265.34
2023-01-07T12:42:09.631Z,96262.53
2023-01-07T12:44:46.103Z,96262.09
2023-01-07T12:47:30.536Z,96233.75
2023-01-07T12:50:28.724Z,96257.03
2023-01-07T12:53:13.527Z,96256.25
2023-01-07T12:55:46.582Z,96255.47
2023-01-07T12:58:31.181Z,96215.38
2023-01-07T13:01:06.147Z,96250.34
2023-01-07T13:03:45.006Z,96236.59
2023-01-07T13:06:18.603Z,96217.38
2023-01-07T13:09:07.502Z,96211.47
2023-01-07T13:12:01.830Z,96230.84
2023-01-07T13:14:37.818Z,96216.28
2023-01-07T13:17:21.567Z,96225.78
2023-01-07T13:19:51.148Z,96229.03
2023-01-07T13:22:40.014Z,96202.72
2023-01-07T13:25:42.142Z,96226.25
2023-01-07T13:28:17.695Z,96217.44
2023-01-07T13:31:05.373Z,96212.63
2023-01-07T13:34:14.285Z,96214.78
2023-01-07T13:37:14.888Z,96219.28
2023-01-07T13:39:56.606Z,96187.88
2023-01-07T13:42:49.150Z,96206.75
2023-01-07T13:45:19.686Z,96133.69
2023-01-07T13:47:53.447Z,96176.88
2023-01-07T13:50:38.860Z,96193.44
2023-01-07T13:53:15.989Z,96166.97
2023-01-07T13:55:44.614Z,96151.97
2023-01-07T13:58:32.457Z,96187.09
2023-01-07T14:01:06.236Z,96166.34
2023-01-07T14:03:40.645Z,96185.25
2023-01-07T14:06:23.703Z,96179.81
2023-01-07T14:09:08.629Z,96176.41
2023-01-07T14:11:44.392Z,96179.97
2023-01-07T14:14:30.236Z,96172.56
2023-01-07T14:17:09.461Z,96146.09
2023-01-07T14:19:48.195Z,96170.06
2023-01-07T14:22:51.919Z,96158.16
2023-01-07T14:25:45.436Z,96157.88
2023-01-07T14:28:36.985Z,96066.44
2023-01-07T14:31:04.628Z,96130.31
2023-01-07T14:33:40.076Z,96162.00
2023-01-07T14:36:10.324Z,96158.94
2023-01-07T14:38:36.955Z,96154.59
2023-01-07T14:41:03.551Z,96149.31
2023-01-07T14:43:48.430Z,96156.91
2023-01-07T14:46:21.133Z,96151.50
2023-01-07T14:48:57.912Z,96155.34
2023-01-07T14:51:47.472Z,96137.88
2023-01-07T14:54:33.224Z,96151.81
2023-01-07T14:57:21.702Z,96156.00
2023-01-07T15:00:06.687Z,96160.31
2023-01-07T15:02:52.156Z,96158.31
2023-01-07T15:05:40.202Z,96148.25
2023-01-07T15:08:27.965Z,96110.66
2023-01-07T15:11:17.198Z,96162.94
2023-01-07T15:14:15.969Z,96159.56
2023-01-07T15:16:46.533Z,96137.75
2023-01-07T15:19:13.357Z,96113.56
2023-01-07T15:22:14.358Z,96149.16
2023-01-07T15:24:52.110Z,96129.81
2023-01-07T15:27:29.875Z,96083.72
2023-01-07T15:30:20.489Z,96128.84
2023-01-07T15:33:15.110Z,96143.25
2023-01-07T15:35:44.210Z,96098.34
2023-01-07T15:38:28.839Z,96142.72
2023-01-07T15:40:57.787Z,96125.22
2023-01-07T15:43:27.739Z,96144.91
2023-01-07T15:46:03.176Z,96147.19
2023-01-07T15:48:29.940Z,96106.00
2023-01-07T15:50:56.744Z,96108.78
2023-01-07T15:53:29.010Z,96131.72
2023-01-07T15:56:00.620Z,96133.13
2023-01-07T15:58:48.760Z,96144.69
2023-01-07T16:01:24.123Z,96143.00
2023-01-07T16:03:56.601Z,96118.38
2023-01-07T16:06:32.861Z,96100.13
2023-01-07T16:09:03.062Z,96128.63
2023-01-07T16:11:31.575Z,96101.50
2023-01-07T16:14:00.691Z,96123.97
2023-01-07T16:16:29.243Z,96113.91
2023-01-07T16:18:57.753Z,96121.63
2023-01-07T16:21:29.873Z,96096.53
2023-01-07T16:23:56.683Z,96097.59
2023-01-07T16:26:41.087Z,96117.25
2023-01-07T16:29:21.902Z,96103.63
2023-01-07T16:31:48.852Z,96103.16
2023-01-07T16:34:24.770Z,96114.56
2023-01-07T16:36:55.461Z,96113.19
2023-01-07T16:39:27.353Z,96101.25
2023-01-07T16:42:14.218Z,96121.41
2023-01-07T16:44:48.604Z,96122.84
2023-01-07T16:47:21.524Z,96090.88
2023-01-07T16:49:55.074Z,96125.38
2023-01-07T16:52:25.898Z,96121.19
2023-01-07T16:54:52.780Z,96086.19
2023-01-07T16:57:41.575Z,96093.28
2023-01-07T17:00:20.147Z,96096.81
2023-01-07T17:02:54.570Z,96116.97
2023-01-07T17:05:24.287Z,96112.31
2023-01-07T17:08:18.622Z,96107.53
2023-01-07T17:10:56.114Z,96088.94
2023-01-07T17:13:22.742Z,96101.66
2023-01-07T17:15:49.700Z,96094.75
2023-01-07T17:18:16.225Z,96102.44
2023-01-07T17:21:00.169Z,96109.91
2023-01-07T17:23:26.943Z,96104.66
2023-01-07T17:26:05.665Z,96098.75
2023-01-07T17:28:36.754Z,96097.19
2023-01-07T17:31:04.006Z,96070.22
2023-01-07T17:33:30.866Z,96078.28
2023-01-07T17:35:57.578Z,96077.25
2023-01-07T17:38:24.338Z,96093.31
2023-01-07T17:40:51.982Z,96089.78
2023-01-07T17:43:34.224Z,96070.25
2023-01-07T17:46:02.212Z,96080.13
2023-01-07T17:48:28.795Z,96070.97
2023-01-07T17:50:58.320Z,96078.34
2023-01-07T17:53:32.849Z,96058.22
2023-01-07T17:56:03.319Z,96074.09
2023-01-07T17:58:33.201Z,96070.50
2023-01-07T18:01:02.719Z,96066.16
2023-01-07T18:03:29.506Z,96075.84
2023-01-07T18:05:56.317Z,96070.41
2023-01-07T18:08:22.966Z,96075.75
2023-01-07T18:11:10.482Z,96064.81
2023-01-07T18:13:39.852Z,96030.53
2023-01-07T18:16:09.780Z,96044.97
2023-01-07T18:18:36.428Z,96069.06
2023-01-07T18:21:03.007Z,96039.50
2023-01-07T18:23:29.567Z,96058.59
2023-01-07T18:25:56.163Z,96046.22
2023-01-07T18:28:22.789Z,96064.81
2023-01-07T18:30:49.377Z,96036.22
2023-01-07T18:33:16.007Z,96059.47
2023-01-07T18:35:42.624Z,96045.44
2023-01-07T18:38:13.413Z,96050.66
2023-01-07T18:40:40.749Z,96076.13
2023-01-07T18:43:11.333Z,96071.28
2023-01-07T18:45:40.368Z,96049.09
2023-01-07T18:48:07.222Z,96074.53
2023-01-07T18:50:33.909Z,96086.13
2023-01-07T18:53:00.636Z,96071.91
2023-01-07T18:55:27.577Z,96073.88
2023-01-07T18:57:54.265Z,96067.22
2023-01-07T19:00:21.110Z,96035.38
2023-01-07T19:02:47.745Z,96057.47
2023-01-07T19:05:14.630Z,96068.13
2023-01-07T19:07:41.454Z,96044.22
2023-01-07T19:10:08.487Z,96059.03
2023-01-07T19:12:35.182Z,96036.03
2023-01-07T19:15:01.764Z,96039.13
2023-01-07T19:17:28.430Z,96016.34
2023-01-07T19:19:55.047Z,96053.19
2023-01-07T19:22:21.980Z,96054.31
2023-01-07T19:24:48.620Z,96060.09
2023-01-07T19:27:15.207Z,96052.41
2023-01-07T19:29:41.878Z,96057.22
2023-01-07T19:32:08.748Z,96029.78
2023-01-07T19:34:35.365Z,96055.72
2023-01-07T19:37:01.979Z,96047.47
2023-01-07T19:39:28.608Z,96029.25
2023-01-07T19:41:56.320Z,96055.41
2023-01-07T19:44:22.956Z,96075.81
2023-01-07T19:46:49.656Z,96062.47
2023-01-07T19:49:16.432Z,96057.81
2023-01-07T19:51:43.626Z,96045.34
2023-01-07T19:54:15.243Z,96047.94
2023-01-07T19:56:43.699Z,96044.81
2023-01-07T19:59:10.851Z,96040.63
2023-01-07T20:01:38.827Z,96020.06
2023-01-07T20:04:07.402Z,96048.00
2023-01-07T20:06:38.622Z,96043.81
2023-01-07T20:09:10.712Z,96020.50
2023-01-07T20:11:38.633Z,96039.28
2023-01-07T20:14:07.425Z,96016.78
2023-01-07T20:16:36.746Z,96027.88
2023-01-07T20:19:03.680Z,96018.06
2023-01-07T20:21:30.342Z,96003.19
2023-01-07T20:23:57.265Z,96021.94
2023-01-07T20:26:29.496Z,95974.28
2023-01-07T20:28:57.439Z,96025.09
2023-01-07T20:31:25.749Z,96026.53
2023-01-07T20:33:58.311Z,95992.47
2023-01-07T20:36:28.881Z,95999.56
2023-01-07T20:38:56.097Z,95996.66
2023-01-07T20:41:25.600Z,96004.59
2023-01-07T20:43:55.190Z,96010.66
2023-01-07T20:46:22.856Z,96008.06
2023-01-07T20:48:49.856Z,95975.06
2023-01-07T20:51:16.937Z,96000.41
2023-01-07T20:53:44.638Z,95989.50
2023-01-07T20:56:12.451Z,95976.50
2023-01-07T20:58:40.152Z,95990.22
2023-01-07T21:01:10.228Z,95992.78
2023-01-07T21:03:39.115Z,95972.34
2023-01-07T21:06:09.934Z,95974.16
2023-01-07T21:08:37.449Z,95983.16
2023-01-07T21:11:07.393Z,95990.44
2023-01-07T21:13:34.060Z,95993.44
2023-01-07T21:16:04.524Z,95959.66
2023-01-07T21:18:32.300Z,95987.66
2023-01-07T21:20:59.436Z,95983.44
2023-01-07T21:23:26.579Z,95960.66
2023-01-07T21:25:53.410Z,95979.78
2023-01-07T21:28:20.828Z,95961.63
2023-01-07T21:30:47.518Z,95967.78
2023-01-07T21:33:15.530Z,95944.47
2023-01-07T21:35:42.247Z,95960.34
2023-01-07T21:38:08.964Z,95937.19
2023-01-07T21:40:38.234Z,95950.69
2023-01-07T21:43:05.022Z,95951.19
2023-01-07T21:45:31.748Z,95949.84
2023-01-07T21:47:58.501Z,95955.03
2023-01-07T21:50:25.378Z,95948.78
2023-01-07T21:52:52.123Z,95964.94
2023-01-07T21:55:18.812Z,95948.34
2023-01-07T21:57:45.438Z,95958.44
2023-01-07T22:00:12.811Z,95970.84
2023-01-07T22:02:39.633Z,95968.69
2023-01-07T22:05:06.808Z,95959.84
2023-01-07T22:07:33.497Z,95956.16
2023-01-07T22:10:00.212Z,95933.66
2023-01-07T22:12:26.903Z,95955.97
2023-01-07T22:14:53.706Z,95926.13
2023-01-07T22:17:20.321Z,95923.00
2023-01-07T22:19:47.098Z,95943.72
2023-01-07T22:22:13.779Z,95916.25
2023-01-07T22:24:40.346Z,95928.88
2023-01-07T22:27:07.119Z,95919.88
2023-01-07T22:29:33.799Z,95945.47
2023-01-07T22:32:00.578Z,95957.34
2023-01-07T22:34:27.217Z,95924.53
2023-01-07T22:37:03.908Z,95947.59
2023-01-07T22:39:36.322Z,95932.41
2023-01-07T22:42:11.683Z,95929.09
2023-01-07T22:44:47.209Z,95951.09
2023-01-07T22:47:17.983Z,95933.16
2023-01-07T22:49:45.647Z,95944.06
2023-01-07T22:52:12.675Z,95909.06
2023-01-07T22:54:39.670Z,95948.88
2023-01-07T22:57:08.621Z,95945.97
2023-01-07T22:59:38.126Z,95916.47
2023-01-07T23:02:04.923Z,95937.25
2023-01-07T23:04:31.654Z,95926.47
2023-01-07T23:06:58.362Z,95933.94
2023-01-07T23:09:25.089Z,95952.84
2023-01-07T23:11:52.079Z,95921.34
2023-01-07T23:14:21.552Z,95914.03
2023-01-07T23:16:49.411Z,95937.53
2023-01-07T23:19:17.370Z,95929.47
2023-01-07T23:21:46.756Z,95905.13
2023-01-07T23:24:14.460Z,95925.94
2023-01-07T23:26:42.262Z,95921.34
2023-01-07T23:29:09.886Z,95920.56
2023-01-07T23:31:37.265Z,95905.63
2023-01-07T23:34:04.601Z,95894.84
2023-01-07T23:36:31.504Z,95916.38
2023-01-07T23:38:58.213Z,95893.28
2023-01-07T23:41:24.933Z,95909.06
2023-01-07T23:43:51.662Z,95913.16
2023-01-07T23:46:18.470Z,95910.28
2023-01-07T23:48:45.164Z,95889.81
2023-01-07T23:51:14.608Z,95896.06
2023-01-07T23:53:41.817Z,95888.00
2023-01-07T23:56:09.424Z,95871.44
2023-01-07T23:58:36.613Z,95878.44
